»·PEaware :: UPS2331 KBUR-KDMN

UPS2331 :: KBUR-KDMN

FLIGHT INFORMATION

Flight Status: Arrived
Operator:
United Parcel Service
More flights by this operator :: More flights under this callsign
Pilot: Drew L. (13237)
Aircraft: BOEING 767-300
(B763)
More flights by this aircraft type
Origin: KBUR Bob Hope-Burbank
United States
Destination: KDMN Deming Mun
United States
More flights between these airports :: More routes between these airports
Route: SLAPP2 BLH J169 KOFFA J65 TAGGS DMN
File this flight plan on PilotEdge
Remarks: RMK / SIMBRIEF
Altitude:
(Current/Filed)
37,000ft
Speed:
(Current/Filed)
455kts
Departed: 03-Nov-20 11:08 AM
Arrived: 03-Nov-20 12:31 PM
Distance/Time
Traveled:
547nm/1:23
Distance/Time
To Go:
Arrived

Flight Plot

Page will automatically refresh every two minutes.

Flight plan parsing failed; only flown route is shown


Map Options




Map Legend


Flown Route
Filed Route
Departure Airport
Arrival Airport
Navaid (VOR, NDB)
Fix

Horizontal Profiles

Position Reports

Time Latitude Longitude Heading Altitude Ground
Speed
03-Nov-20 10:20 34.196245 -118.363788 149 723ft 0kts
03-Nov-20 10:21 34.196245 -118.363788 149 723ft 0kts
03-Nov-20 10:22 34.196245 -118.363788 149 723ft 0kts
03-Nov-20 10:23 34.196245 -118.363788 149 723ft 0kts
03-Nov-20 10:24 34.196245 -118.363788 149 723ft 0kts
03-Nov-20 10:25 34.196245 -118.363788 149 723ft 0kts
03-Nov-20 10:26 34.196245 -118.363788 149 723ft 0kts
03-Nov-20 10:27 34.196245 -118.363788 149 723ft 0kts
03-Nov-20 10:28 34.196245 -118.363788 149 723ft 0kts
03-Nov-20 10:29 34.196245 -118.363788 149 723ft 0kts
03-Nov-20 10:30 34.196245 -118.363788 149 723ft 0kts
03-Nov-20 10:31 34.196245 -118.363788 149 723ft 0kts
03-Nov-20 10:32 34.196245 -118.363788 149 723ft 0kts
03-Nov-20 10:33 34.196245 -118.363788 149 723ft 0kts
03-Nov-20 10:34 34.196245 -118.363788 149 723ft 0kts
03-Nov-20 10:35 34.196245 -118.363788 149 723ft 0kts
03-Nov-20 10:36 34.196245 -118.363788 149 723ft 0kts
03-Nov-20 10:37 34.196245 -118.363788 149 723ft 0kts
03-Nov-20 10:38 34.196245 -118.363788 149 723ft 0kts
03-Nov-20 10:39 34.196245 -118.363788 149 723ft 0kts
03-Nov-20 10:40 34.196245 -118.363788 149 723ft 0kts
03-Nov-20 10:41 34.196245 -118.363788 149 723ft 0kts
03-Nov-20 10:42 34.196245 -118.363788 149 723ft 0kts
03-Nov-20 10:43 34.196245 -118.363788 149 723ft 0kts
03-Nov-20 10:44 34.196245 -118.363788 149 723ft 0kts
03-Nov-20 10:45 34.196245 -118.363788 149 723ft 0kts
03-Nov-20 10:46 34.196245 -118.363788 149 723ft 0kts
03-Nov-20 10:47 34.196245 -118.363788 149 723ft 0kts
03-Nov-20 10:48 34.196245 -118.363788 149 723ft 0kts
03-Nov-20 10:49 34.196245 -118.363788 149 723ft 0kts
03-Nov-20 10:50 34.196245 -118.363788 149 723ft 0kts
03-Nov-20 10:51 34.196245 -118.363788 149 723ft 0kts
03-Nov-20 10:52 34.196245 -118.363788 149 723ft 0kts
03-Nov-20 10:53 34.196245 -118.363788 149 723ft 0kts
03-Nov-20 10:54 34.196245 -118.363788 149 723ft 0kts
03-Nov-20 10:55 34.196245 -118.363789 149 723ft 0kts
03-Nov-20 10:56 34.196632 -118.364004 184 725ft 2kts
03-Nov-20 10:57 34.196874 -118.363456 275 724ft 2kts
03-Nov-20 10:58 34.196862 -118.362739 269 724ft 2kts
03-Nov-20 10:59 34.196870 -118.362015 269 724ft 2kts
03-Nov-20 11:00 34.196872 -118.361835 269 724ft 0kts
03-Nov-20 11:01 34.196872 -118.361835 269 724ft 0kts
03-Nov-20 11:02 34.196867 -118.362182 269 724ft 5kts
03-Nov-20 11:03 34.196905 -118.364688 272 726ft 6kts
03-Nov-20 11:04 34.196918 -118.366892 269 730ft 7kts
03-Nov-20 11:05 34.196998 -118.368769 295 731ft 4kts
03-Nov-20 11:06 34.197926 -118.368919 78 733ft 1kts
03-Nov-20 11:07 34.197345 -118.340370 92 1224ft 156kts
03-Nov-20 11:08 34.164807 -118.326973 222 3228ft 198kts
03-Nov-20 11:09 34.117398 -118.378293 221 4883ft 267kts
03-Nov-20 11:10 34.103587 -118.457706 311 8220ft 283kts
03-Nov-20 11:11 34.178678 -118.473297 22 11398ft 297kts
03-Nov-20 11:12 34.264628 -118.426200 22 13024ft 367kts
03-Nov-20 11:13 34.360042 -118.380805 22 16411ft 379kts
03-Nov-20 11:14 34.460417 -118.332110 30 18989ft 403kts
03-Nov-20 11:15 34.548651 -118.247214 41 20517ft 413kts
03-Nov-20 11:16 34.637640 -118.154197 51 22954ft 433kts
03-Nov-20 11:17 34.683280 -118.023182 89 23238ft 422kts
03-Nov-20 11:18 34.656348 -117.886524 117 25648ft 426kts
03-Nov-20 11:19 34.605808 -117.753149 119 27774ft 444kts
03-Nov-20 11:20 34.551487 -117.614853 119 29724ft 463kts
03-Nov-20 11:21 34.494514 -117.470816 119 31446ft 483kts
03-Nov-20 11:22 34.435227 -117.321599 119 33264ft 495kts
03-Nov-20 11:23 34.375394 -117.171732 119 35112ft 494kts
03-Nov-20 11:24 34.316922 -117.021460 114 36432ft 501kts
03-Nov-20 11:25 34.267834 -116.862430 113 37023ft 510kts
03-Nov-20 11:26 34.218049 -116.701534 113 36968ft 509kts
03-Nov-20 11:27 34.168329 -116.541721 113 36998ft 509kts
03-Nov-20 11:28 34.118342 -116.381884 113 37012ft 509kts
03-Nov-20 11:29 34.068203 -116.222444 113 37129ft 507kts
03-Nov-20 11:30 34.017820 -116.063051 113 37135ft 509kts
03-Nov-20 11:31 33.967381 -115.904321 113 37081ft 509kts
03-Nov-20 11:32 33.916435 -115.744829 113 37034ft 509kts
03-Nov-20 11:33 33.865494 -115.586195 113 37034ft 509kts
03-Nov-20 11:34 33.814349 -115.427764 113 37035ft 509kts
03-Nov-20 11:35 33.762956 -115.269460 114 37053ft 508kts
03-Nov-20 11:36 33.711532 -115.111889 114 37071ft 508kts
03-Nov-20 11:37 33.659868 -114.954384 114 37075ft 506kts
03-Nov-20 11:38 33.608258 -114.797676 113 37076ft 505kts
03-Nov-20 11:40 33.584825 -114.630970 97 37077ft 511kts
03-Nov-20 11:41 33.569424 -114.461458 97 37079ft 511kts
03-Nov-20 11:42 33.553992 -114.292237 97 37069ft 511kts
03-Nov-20 11:43 33.538398 -114.123726 97 37069ft 511kts
03-Nov-20 11:44 33.522487 -113.954328 97 37065ft 510kts
03-Nov-20 11:45 33.506389 -113.785506 97 37065ft 511kts
03-Nov-20 11:46 33.490056 -113.616607 97 37076ft 511kts
03-Nov-20 11:47 33.473537 -113.448207 97 37088ft 511kts
03-Nov-20 11:48 33.462618 -113.278508 92 37080ft 512kts
03-Nov-20 11:49 33.459457 -113.108204 92 37080ft 512kts
03-Nov-20 11:50 33.456170 -112.937933 92 37084ft 515kts
03-Nov-20 11:51 33.452619 -112.765743 92 37086ft 520kts
03-Nov-20 11:52 33.448813 -112.592868 92 37087ft 519kts
03-Nov-20 11:53 33.444777 -112.420412 92 37103ft 519kts
03-Nov-20 11:54 33.440503 -112.248015 92 37104ft 519kts
03-Nov-20 11:55 33.435976 -112.075232 92 37101ft 519kts
03-Nov-20 11:56 33.432183 -111.902824 91 37113ft 518kts
03-Nov-20 11:56 33.430141 -111.758883 91 37123ft 519kts
03-Nov-20 11:58 33.427011 -111.558776 91 37127ft 519kts
03-Nov-20 11:58 33.424561 -111.414967 91 37139ft 519kts
03-Nov-20 12:00 33.420497 -111.213509 95 37131ft 519kts
03-Nov-20 12:00 33.389774 -111.075517 112 37136ft 514kts
03-Nov-20 12:02 33.333192 -110.888013 112 37138ft 516kts
03-Nov-20 12:02 33.292095 -110.753641 112 37140ft 516kts
03-Nov-20 12:03 33.242466 -110.592261 112 37153ft 515kts
03-Nov-20 12:04 33.192898 -110.431938 112 37242ft 516kts
03-Nov-20 12:05 33.142974 -110.271320 113 37261ft 515kts
03-Nov-20 12:06 33.093042 -110.111522 113 37262ft 513kts
03-Nov-20 12:07 33.043597 -109.954048 113 35594ft 498kts
03-Nov-20 12:08 32.995255 -109.800932 113 33808ft 495kts
03-Nov-20 12:09 32.946695 -109.647851 113 32028ft 493kts
03-Nov-20 12:10 32.898091 -109.495346 112 30263ft 496kts
03-Nov-20 12:11 32.849123 -109.342457 113 28494ft 488kts
03-Nov-20 12:12 32.801111 -109.193303 112 26667ft 474kts
03-Nov-20 12:13 32.754059 -109.047889 112 24844ft 463kts
03-Nov-20 12:14 32.707774 -108.905439 111 23013ft 450kts
03-Nov-20 12:15 32.662867 -108.767903 111 21197ft 438kts
03-Nov-20 12:16 32.618876 -108.635620 111 19384ft 418kts
03-Nov-20 12:17 32.556781 -108.527037 130 17356ft 382kts
03-Nov-20 12:18 32.493106 -108.430936 127 15913ft 362kts
03-Nov-20 12:19 32.433075 -108.336919 127 14269ft 352kts
03-Nov-20 12:20 32.377532 -108.249952 127 13469ft 300kts
03-Nov-20 12:21 32.328357 -108.173129 127 11981ft 281kts
03-Nov-20 12:22 32.282710 -108.101904 128 10517ft 258kts
03-Nov-20 12:23 32.261887 -108.031282 91 9017ft 218kts
03-Nov-20 12:24 32.261915 -107.964141 91 7431ft 190kts
03-Nov-20 12:25 32.262198 -107.906728 91 6416ft 162kts
03-Nov-20 12:26 32.262479 -107.851112 91 6411ft 166kts
03-Nov-20 12:27 32.262736 -107.798345 90 5515ft 152kts
03-Nov-20 12:28 32.262963 -107.748390 91 4739ft 150kts
03-Nov-20 12:29 32.263073 -107.712058 89 4306ft 42kts
03-Nov-20 12:30 32.263103 -107.704607 90 4299ft 15kts

Navigation Log

Ident Type
Flight plan parsing failed, navigation log unavailable